Time;durP1;ratioP1;P1;durP2;ratioP2;P2;SDS_P1;SDS_P2;PMS_P1;PMS_P2;Temp;Humidity;BMP_temperature;BMP_pressure;BME280_temperature;BME280_humidity;BME280_pressure;Samples;Min_cycle;Max_cycle;Signal;HPM_P1;HPM_P2
2022/12/18 18:15:42;;;;;;;64.95;32.60;;;;;;;-0.13;71.84;102421.88;2421165;78;25773;-78
2022/12/18 18:19:13;;;;;;;65.37;33.83;;;;;;;-0.02;71.95;102419.99;2446915;79;25687;-79
2022/12/18 18:22:44;;;;;;;61.83;31.15;;;;;;;0.22;71.82;102433.03;2455238;78;25644;-79
2022/12/18 18:26:28;;;;;;;54.42;27.70;;;;;;;0.52;71.57;102420.99;2446216;79;26322;-79
2022/12/18 18:29:53;;;;;;;48.10;26.12;;;;;;;0.82;71.23;102431.11;2439467;79;25305;-79
2022/12/18 18:33:22;;;;;;;40.48;20.97;;;;;;;1.09;70.83;102429.87;2434244;80;25650;-79
2022/12/18 18:36:47;;;;;;;35.68;21.33;;;;;;;1.37;70.45;102423.45;2422648;79;25800;-79
2022/12/18 18:40:20;;;;;;;39.95;21.75;;;;;;;1.63;70.07;102429.34;2441650;79;25651;-80
2022/12/18 18:43:58;;;;;;;32.28;19.40;;;;;;;1.88;69.73;102422.58;2444235;79;25647;-78
2022/12/18 18:47:27;;;;;;;793.80;423.05;;;;;;;2.08;69.29;102422.72;2431105;78;28092;-78
2022/12/18 18:51:00;;;;;;;499.10;252.20;;;;;;;2.55;73.78;102420.02;2437425;79;25599;-78
2022/12/18 18:54:25;;;;;;;428.20;205.03;;;;;;;2.91;71.87;102432.65;2493989;77;25644;-79
2022/12/18 18:57:50;;;;;;;478.00;228.52;;;;;;;3.12;70.65;102427.55;2468991;77;25732;-80
2022/12/18 19:01:29;;;;;;;522.15;265.95;;;;;;;3.23;70.25;102411.31;2488580;77;25692;-79
2022/12/18 19:05:02;;;;;;;422.40;208.23;;;;;;;3.31;69.84;102400.00;2368721;82;26557;-79
2022/12/18 19:08:30;;;;;;;408.85;192.98;;;;;;;3.40;69.38;102421.78;2323693;83;25800;-80
2022/12/18 19:16:11;;;;;;;301.62;131.90;;;;;;;3.55;68.71;102429.15;2331230;82;25770;-80
2022/12/18 19:19:34;;;;;;;262.42;122.75;;;;;;;3.60;68.34;102414.05;2232288;86;25735;-79
2022/12/18 19:23:05;;;;;;;246.10;114.42;;;;;;;3.66;68.26;102425.28;2236339;86;26033;-79
2022/12/18 19:30:07;;;;;;;187.43;85.53;;;;;;;3.81;67.34;102429.52;2140486;90;25993;-81
2022/12/18 19:33:40;;;;;;;149.70;67.82;;;;;;;3.78;67.10;102434.96;2141346;90;25807;-79
2022/12/18 19:37:08;;;;;;;134.63;64.27;;;;;;;3.79;66.80;102443.59;2129740;90;25727;-80
2022/12/18 19:40:36;;;;;;;123.42;59.50;;;;;;;3.74;66.49;102447.45;2138103;91;25759;-80
2022/12/18 19:44:11;;;;;;;80.07;40.43;;;;;;;3.69;66.40;102460.36;2093591;92;25921;-81
2022/12/18 19:47:28;;;;;;;60.75;30.25;;;;;;;3.64;65.79;102441.00;2045161;95;25854;-80
2022/12/18 19:51:01;;;;;;;48.38;25.80;;;;;;;3.22;64.74;102446.51;2078651;94;25896;-80
2022/12/18 19:54:29;;;;;;;44.58;22.95;;;;;;;2.81;64.21;102446.39;2070946;94;25698;-81
2022/12/18 19:57:53;;;;;;;38.78;21.68;;;;;;;2.42;63.74;102432.56;2082958;94;26099;-80
2022/12/18 20:01:20;;;;;;;39.08;22.13;;;;;;;2.11;63.45;102432.00;2075949;94;25963;-81
2022/12/18 20:04:48;;;;;;;40.95;21.77;;;;;;;1.84;63.57;102429.12;2068748;94;25758;-81
2022/12/18 20:08:11;;;;;;;38.08;21.55;;;;;;;1.53;63.13;102434.79;2081079;92;25799;-80
2022/12/18 20:11:34;;;;;;;34.48;19.42;;;;;;;1.29;63.16;102434.70;2101576;91;25757;-79
2022/12/18 20:15:04;;;;;;;31.12;18.17;;;;;;;1.25;63.57;102450.56;2197867;88;25935;-79
2022/12/18 20:18:24;;;;;;;33.13;20.12;;;;;;;1.48;63.80;102447.20;2170468;89;26505;-81
2022/12/18 20:22:05;;;;;;;31.95;19.55;;;;;;;1.74;63.79;102434.19;2177290;88;25781;-79
2022/12/18 20:25:24;;;;;;;36.33;19.20;;;;;;;1.96;63.57;102445.13;2170731;89;25961;-79
2022/12/18 20:29:00;;;;;;;31.90;18.37;;;;;;;2.13;63.57;102454.03;2175179;89;25670;-80
2022/12/18 20:32:18;;;;;;;29.90;19.17;;;;;;;2.27;63.29;102456.17;2183860;89;26153;-79
2022/12/18 20:35:44;;;;;;;34.70;18.27;;;;;;;2.38;63.15;102451.98;2206888;88;25807;-79
2022/12/18 20:39:12;;;;;;;33.73;19.12;;;;;;;2.48;63.06;102450.75;2234543;81;25535;-79
2022/12/18 20:42:33;;;;;;;31.48;17.75;;;;;;;2.54;62.81;102458.13;2396370;80;25648;-80
2022/12/18 20:46:11;;;;;;;36.98;17.10;;;;;;;2.59;62.55;102466.76;2389030;80;25784;-80
2022/12/18 20:49:42;;;;;;;31.85;17.65;;;;;;;2.64;62.45;102480.06;2421087;80;25833;-80
2022/12/18 20:53:03;;;;;;;28.98;17.40;;;;;;;2.67;62.14;102488.06;2413215;81;25653;-79
2022/12/18 20:56:29;;;;;;;29.87;17.90;;;;;;;2.69;61.94;102472.73;2423138;80;25832;-79
2022/12/18 20:59:52;;;;;;;26.97;16.32;;;;;;;2.70;61.81;102475.47;2439681;80;25616;-79
2022/12/18 21:03:18;;;;;;;31.25;18.10;;;;;;;2.74;61.75;102473.67;2417001;80;25719;-78
2022/12/18 21:06:43;;;;;;;28.55;17.80;;;;;;;2.77;61.61;102484.64;2419430;80;25622;-80
2022/12/18 21:10:06;;;;;;;29.40;16.30;;;;;;;2.80;61.42;102483.23;2446176;80;25722;-79
2022/12/18 21:13:29;;;;;;;28.12;17.15;;;;;;;2.81;61.32;102484.14;2426624;80;25877;-80
2022/12/18 21:17:00;;;;;;;32.33;17.57;;;;;;;2.84;61.26;102477.58;2413481;80;25681;-80
2022/12/18 21:20:36;;;;;;;;;;;;;;;2.87;61.21;102489.84;2416750;81;25778;-79
2022/12/18 21:23:59;;;;;;;29.70;17.77;;;;;;;2.88;60.97;102488.16;2424866;80;25597;-78
2022/12/18 21:27:29;;;;;;;30.70;17.75;;;;;;;2.88;60.91;102481.33;2430648;80;25669;-79
2022/12/18 21:31:04;;;;;;;33.80;18.60;;;;;;;2.90;60.89;102475.91;2424896;80;25199;-79
2022/12/18 21:34:37;;;;;;;33.90;17.62;;;;;;;2.93;60.85;102470.13;2413392;80;25663;-80
2022/12/18 21:38:01;;;;;;;27.00;16.10;;;;;;;2.92;60.67;102465.36;2420790;80;25618;-80
2022/12/18 21:45:11;;;;;;;31.37;19.25;;;;;;;2.96;60.62;102451.08;2424407;80;25651;-79
2022/12/18 21:48:37;;;;;;;29.87;17.00;;;;;;;2.97;60.54;102443.49;2390692;80;25683;-79
2022/12/18 21:52:01;;;;;;;31.90;16.80;;;;;;;3.00;60.51;102436.39;2443767;80;25673;-80
2022/12/18 21:55:30;;;;;;;28.73;16.17;;;;;;;3.00;60.33;102427.02;2445091;79;25664;-78
